Time;durP1;ratioP1;P1;durP2;ratioP2;P2;SDS_P1;SDS_P2;PMS_P1;PMS_P2;Temp;Humidity;BMP_temperature;BMP_pressure;BME280_temperature;BME280_humidity;BME280_pressure;Samples;Min_cycle;Max_cycle;Signal;HPM_P1;HPM_P2
2023/11/18 00:01:32;;;;;;;9.98;3.80;;;;;;;-3.92;63.54;100329.63;5033855;28;20044;-35
2023/11/18 00:03:58;;;;;;;14.65;3.53;;;;;;;-3.92;63.62;100334.72;5038164;28;20037;-37
2023/11/18 00:06:24;;;;;;;11.45;3.55;;;;;;;-4.14;63.59;100315.38;5036863;28;20140;-36
2023/11/18 00:08:50;;;;;;;6.85;3.65;;;;;;;-3.98;63.73;100339.59;5033966;28;20132;-37
2023/11/18 00:11:18;;;;;;;11.57;4.13;;;;;;;-4.04;64.36;100322.50;5025830;28;20044;-35
2023/11/18 00:13:45;;;;;;;8.10;3.60;;;;;;;-4.14;64.09;100314.50;5034784;28;20045;-36
2023/11/18 00:16:15;;;;;;;15.93;3.70;;;;;;;-3.95;64.17;100348.19;5033248;28;20044;-38
2023/11/18 00:18:42;;;;;;;5.60;3.30;;;;;;;-3.98;64.13;100350.59;5046005;28;20076;-36
2023/11/18 00:21:09;;;;;;;16.73;4.80;;;;;;;-4.00;64.28;100351.38;5047099;28;20155;-36
2023/11/18 00:23:35;;;;;;;10.82;3.63;;;;;;;-3.99;64.60;100355.66;5041865;28;20045;-35
2023/11/18 00:26:01;;;;;;;10.23;4.13;;;;;;;-3.99;64.27;100359.06;5032972;28;20042;-35
2023/11/18 00:28:28;;;;;;;8.32;3.88;;;;;;;-4.02;64.43;100353.00;5038737;28;20041;-36
2023/11/18 00:30:55;;;;;;;8.07;4.30;;;;;;;-4.05;64.59;100351.22;5000696;28;20080;-35
2023/11/18 00:33:22;;;;;;;15.13;4.63;;;;;;;-4.03;64.80;100354.66;5049353;28;20037;-35
2023/11/18 00:35:48;;;;;;;10.13;4.63;;;;;;;-4.03;64.74;100357.19;5052990;28;20052;-35
2023/11/18 00:38:14;;;;;;;11.02;4.45;;;;;;;-4.04;65.48;100360.56;5035574;28;20049;-35
2023/11/18 00:40:39;;;;;;;12.00;4.50;;;;;;;-4.06;64.87;100356.25;5050836;28;20053;-35
2023/11/18 00:43:05;;;;;;;18.58;4.78;;;;;;;-4.07;64.98;100364.66;5030347;28;20053;-37
2023/11/18 00:45:31;;;;;;;10.18;4.78;;;;;;;-4.11;64.99;100360.28;5033552;28;20425;-38
2023/11/18 00:47:58;;;;;;;8.20;4.18;;;;;;;-4.13;65.51;100360.22;5052064;28;20514;-37
2023/11/18 00:50:24;;;;;;;11.70;4.90;;;;;;;-4.13;65.72;100364.44;5047218;28;20060;-36
2023/11/18 00:52:50;;;;;;;15.18;4.45;;;;;;;-4.19;65.64;100360.03;5033010;28;20045;-37
2023/11/18 00:55:19;;;;;;;15.57;4.22;;;;;;;-4.20;65.74;100362.53;5035135;28;20509;-37
2023/11/18 00:57:46;;;;;;;8.32;2.92;;;;;;;-4.16;65.90;100380.44;5040216;28;20037;-36
2023/11/18 01:00:16;;;;;;;10.68;3.47;;;;;;;-4.53;66.07;100317.38;5036970;28;20051;-35
2023/11/18 01:02:43;;;;;;;14.65;4.10;;;;;;;-4.16;66.31;100372.84;5033175;28;20045;-36
2023/11/18 01:05:10;;;;;;;7.68;3.92;;;;;;;-4.19;65.96;100371.88;5012637;28;20061;-35
2023/11/18 01:07:38;;;;;;;11.50;4.95;;;;;;;-4.21;66.03;100364.19;5053499;28;20041;-35
2023/11/18 01:10:06;;;;;;;7.65;3.78;;;;;;;-4.22;66.22;100374.28;5032793;28;20045;-36
2023/11/18 01:12:33;;;;;;;11.27;3.58;;;;;;;-4.21;66.33;100383.63;5032914;28;20556;-36
2023/11/18 01:15:00;;;;;;;12.77;3.00;;;;;;;-4.23;66.18;100381.03;5032898;28;20536;-37
2023/11/18 01:17:27;;;;;;;6.55;3.25;;;;;;;-4.24;66.60;100381.00;5049302;28;20567;-37
2023/11/18 01:19:53;;;;;;;9.20;3.35;;;;;;;-4.26;66.82;100375.84;5046053;28;20049;-36
2023/11/18 01:22:21;;;;;;;6.80;3.13;;;;;;;-4.26;66.78;100380.94;5033938;28;20034;-39
2023/11/18 01:24:47;;;;;;;8.60;3.08;;;;;;;-4.44;66.98;100359.94;5052599;28;20464;-37
2023/11/18 01:27:13;;;;;;;8.13;2.65;;;;;;;-4.29;66.77;100386.75;5033630;28;20086;-46
2023/11/18 01:29:39;;;;;;;8.63;3.40;;;;;;;-4.46;66.73;100364.13;5034307;28;20041;-37
2023/11/18 01:32:09;;;;;;;6.03;3.10;;;;;;;-4.35;66.94;100383.16;5031496;28;20136;-36
2023/11/18 01:34:38;;;;;;;8.07;2.97;;;;;;;-4.58;66.74;100345.91;5022852;28;20653;-36
2023/11/18 01:37:07;;;;;;;7.75;3.45;;;;;;;-4.35;67.22;100391.63;5042047;28;20053;-37
2023/11/18 01:39:35;;;;;;;6.45;3.40;;;;;;;-4.38;67.03;100390.63;5026001;28;20078;-36
2023/11/18 01:42:03;;;;;;;6.50;3.42;;;;;;;-4.41;67.08;100391.41;5045252;28;20073;-35
2023/11/18 01:44:30;;;;;;;8.00;3.50;;;;;;;-4.41;67.19;100393.06;5029528;28;20083;-36
2023/11/18 01:47:05;;;;;;;9.13;3.47;;;;;;;-4.61;67.58;100366.09;5030481;28;20037;-36
2023/11/18 01:49:32;;;;;;;7.95;3.50;;;;;;;-4.43;67.74;100392.13;5037980;28;20061;-37
2023/11/18 01:52:01;;;;;;;12.90;3.42;;;;;;;-4.63;67.71;100358.44;5016797;28;20512;-35
2023/11/18 01:54:28;;;;;;;9.55;3.50;;;;;;;-4.45;67.66;100384.47;5051747;28;20127;-37
2023/11/18 01:56:55;;;;;;;7.50;3.45;;;;;;;-4.64;67.51;100355.84;5059947;28;20043;-36
2023/11/18 01:59:21;;;;;;;5.60;3.30;;;;;;;-4.46;67.63;100397.97;5054439;28;20577;-35
2023/11/18 02:01:53;;;;;;;10.32;4.72;;;;;;;-4.46;67.63;100397.13;5063778;28;20071;-35
2023/11/18 02:04:21;;;;;;;9.13;3.47;;;;;;;-4.47;67.97;100397.91;5069013;28;20160;-36
2023/11/18 02:06:50;;;;;;;9.30;3.35;;;;;;;-4.69;67.80;100365.81;5035722;28;20045;-36
2023/11/18 02:09:18;;;;;;;5.78;3.15;;;;;;;-4.49;67.74;100402.94;5048224;28;20443;-37
2023/11/18 02:11:53;;;;;;;7.63;3.25;;;;;;;-4.49;68.72;100399.53;5033479;28;20099;-35
2023/11/18 02:14:20;;;;;;;8.95;2.80;;;;;;;-4.49;68.22;100399.53;5048785;28;20114;-36
2023/11/18 02:16:49;;;;;;;5.07;2.20;;;;;;;-4.51;68.69;100396.94;5037842;28;20045;-36
2023/11/18 02:19:24;;;;;;;9.20;3.20;;;;;;;-4.53;68.04;100388.41;5030046;28;20044;-36
2023/11/18 02:21:52;;;;;;;6.50;3.00;;;;;;;-4.55;68.10;100399.31;4997215;28;20137;-36
2023/11/18 02:24:40;;;;;;;7.97;3.22;;;;;;;-4.56;68.70;100393.38;5033041;28;20399;-41
2023/11/18 02:27:07;;;;;;;11.18;2.65;;;;;;;-4.59;68.30;100390.72;5046333;28;20045;-37
2023/11/18 02:29:38;;;;;;;6.38;2.95;;;;;;;-4.59;68.76;100394.91;5029466;28;20044;-37
2023/11/18 02:32:30;;;;;;;9.88;3.25;;;;;;;-4.60;68.90;100396.59;5046652;28;20049;-36
2023/11/18 02:35:11;;;;;;;6.38;2.88;;;;;;;-4.63;68.41;100388.00;5033456;28;20033;-35
2023/11/18 02:37:47;;;;;;;14.27;3.13;;;;;;;-4.66;69.22;100395.50;5042794;28;20075;-37
2023/11/18 02:40:17;;;;;;;6.25;2.72;;;;;;;-4.65;69.45;100399.75;5043223;28;20045;-36
2023/11/18 02:42:45;;;;;;;6.82;3.08;;;;;;;-4.68;68.87;100395.44;5036652;28;20044;-44
2023/11/18 02:45:16;;;;;;;7.38;3.17;;;;;;;-4.68;69.15;100394.59;5055645;28;20106;-34
2023/11/18 02:47:45;;;;;;;9.25;4.38;;;;;;;-4.71;69.40;100397.88;5054567;28;20040;-37
2023/11/18 02:50:13;;;;;;;5.85;3.33;;;;;;;-4.72;69.20;100388.53;5057184;28;20044;-36
2023/11/18 02:52:40;;;;;;;14.68;4.43;;;;;;;-4.95;69.35;100351.28;5057120;28;20040;-36
2023/11/18 02:55:07;;;;;;;9.98;4.63;;;;;;;-4.75;69.31;100396.88;5054840;28;20053;-35
2023/11/18 02:57:38;;;;;;;9.45;4.63;;;;;;;-4.77;69.44;100397.66;5050196;28;20044;-36
2023/11/18 03:00:05;;;;;;;10.77;4.47;;;;;;;-4.93;69.85;100368.31;5048415;28;20053;-35
2023/11/18 03:02:32;;;;;;;10.35;4.38;;;;;;;-5.01;69.89;100349.38;5047037;28;20036;-37
2023/11/18 03:04:58;;;;;;;10.90;4.53;;;;;;;-4.77;70.27;100395.13;5031329;28;20048;-36
2023/11/18 03:07:26;;;;;;;10.55;4.68;;;;;;;-4.97;69.98;100363.06;5046918;28;20033;-34
2023/11/18 03:09:57;;;;;;;10.02;4.95;;;;;;;-4.78;70.06;100399.31;5046886;28;20033;-35
2023/11/18 03:12:27;;;;;;;8.45;4.90;;;;;;;-5.02;70.02;100359.50;5058118;28;20458;-37
2023/11/18 03:14:53;;;;;;;10.65;5.72;;;;;;;-4.79;70.01;100401.78;5053508;28;20171;-36
2023/11/18 03:17:23;;;;;;;11.07;4.63;;;;;;;-4.81;70.37;100406.78;5049718;28;20037;-36
2023/11/18 03:19:50;;;;;;;9.52;4.63;;;;;;;-4.78;70.67;100403.53;5050162;28;20056;-36
2023/11/18 03:22:16;;;;;;;11.55;4.68;;;;;;;-4.81;70.64;100409.31;5036662;28;20094;-35
2023/11/18 03:24:42;;;;;;;11.90;3.22;;;;;;;-4.82;70.49;100400.00;5049843;28;20049;-36
2023/11/18 03:27:08;;;;;;;12.60;5.18;;;;;;;-4.81;71.21;100396.66;5048523;28;20041;-36
2023/11/18 03:29:35;;;;;;;12.38;4.82;;;;;;;-4.81;70.85;100406.78;5019546;28;20425;-36
2023/11/18 03:32:01;;;;;;;10.75;3.97;;;;;;;-4.84;70.76;100409.22;5034811;28;20072;-35
2023/11/18 03:34:27;;;;;;;9.30;4.72;;;;;;;-5.13;71.15;100357.38;5047077;28;20044;-36
2023/11/18 03:36:57;;;;;;;13.50;4.53;;;;;;;-4.81;71.08;100401.72;5034796;28;20049;-36
2023/11/18 03:39:23;;;;;;;7.00;4.43;;;;;;;-5.01;71.31;100374.72;5038920;28;20053;-35
2023/11/18 03:41:49;;;;;;;11.95;5.18;;;;;;;-4.80;71.06;100405.13;5036963;28;20068;-36
2023/11/18 03:44:17;;;;;;;12.75;4.65;;;;;;;-4.80;71.35;100397.50;5036627;28;20051;-38
2023/11/18 03:46:43;;;;;;;14.13;4.13;;;;;;;-4.81;71.55;100409.31;5034259;28;20065;-35
2023/11/18 03:49:09;;;;;;;9.30;4.45;;;;;;;-4.81;71.47;100399.19;5033503;28;20131;-35
2023/11/18 03:51:35;;;;;;;12.15;4.55;;;;;;;-4.81;71.52;100398.31;5032444;28;20500;-36
2023/11/18 03:54:01;;;;;;;5.68;3.55;;;;;;;-4.79;71.39;100404.31;5033426;28;20045;-38
2023/11/18 03:56:28;;;;;;;10.02;3.97;;;;;;;-4.80;72.08;100400.03;5049609;28;20496;-36
2023/11/18 03:58:54;;;;;;;8.30;3.90;;;;;;;-4.81;71.99;100404.25;5033387;28;20049;-37
2023/11/18 04:01:27;;;;;;;12.88;4.18;;;;;;;-4.97;71.50;100376.56;5035273;28;20041;-43
2023/11/18 04:03:53;;;;;;;10.85;4.07;;;;;;;-4.83;71.92;100415.16;5050092;28;20111;-36
2023/11/18 04:06:21;;;;;;;12.05;3.80;;;;;;;-4.86;72.49;100403.22;5024345;28;20124;-36
2023/11/18 04:08:48;;;;;;;13.93;3.70;;;;;;;-4.85;72.56;100404.06;5013522;28;20140;-36
2023/11/18 04:11:15;;;;;;;15.00;4.25;;;;;;;-5.01;72.19;100386.53;5029553;28;20048;-36
2023/11/18 04:13:42;;;;;;;9.27;4.28;;;;;;;-5.00;72.40;100378.13;5029656;28;20042;-38
2023/11/18 04:16:12;;;;;;;14.25;3.78;;;;;;;-4.84;71.87;100413.41;5049160;28;20057;-36
2023/11/18 04:18:42;;;;;;;15.57;3.72;;;;;;;-4.84;72.51;100410.88;5046222;28;20037;-37
2023/11/18 04:21:10;;;;;;;19.13;3.42;;;;;;;-4.85;72.20;100419.28;5033978;28;20048;-37
2023/11/18 04:23:41;;;;;;;9.45;3.47;;;;;;;-4.84;72.21;100418.50;5049580;28;20045;-38
2023/11/18 04:26:07;;;;;;;9.65;3.42;;;;;;;-5.02;72.58;100392.44;5034673;28;20090;-35
2023/11/18 04:28:34;;;;;;;10.10;3.63;;;;;;;-5.01;72.44;100389.06;5034052;28;20509;-36
2023/11/18 04:31:01;;;;;;;9.90;4.13;;;;;;;-4.86;72.37;100420.97;5033499;28;20080;-37
2023/11/18 04:33:29;;;;;;;6.40;2.92;;;;;;;-5.05;72.54;100388.09;5034219;28;20131;-37
2023/11/18 04:35:58;;;;;;;9.18;2.95;;;;;;;-4.87;72.58;100419.25;5033866;28;20426;-39
2023/11/18 04:38:25;;;;;;;9.75;3.45;;;;;;;-4.86;72.83;100423.50;5049225;28;20465;-37
2023/11/18 04:40:55;;;;;;;9.38;3.50;;;;;;;-5.04;72.85;100391.50;5034021;28;20040;-38
2023/11/18 04:43:22;;;;;;;11.32;3.92;;;;;;;-4.85;72.90;100419.28;5033644;28;20056;-37
2023/11/18 04:45:48;;;;;;;12.02;3.58;;;;;;;-5.16;72.58;100371.59;5034387;28;20044;-36
2023/11/18 04:48:14;;;;;;;12.55;3.60;;;;;;;-5.02;72.63;100385.69;5030886;28;20477;-38
2023/11/18 04:50:42;;;;;;;10.18;3.60;;;;;;;-4.84;72.57;100418.50;5048573;28;20128;-36
2023/11/18 04:53:08;;;;;;;15.88;5.28;;;;;;;-4.81;73.27;100422.00;5030080;28;20033;-35
2023/11/18 04:55:37;;;;;;;11.52;4.30;;;;;;;-4.82;72.71;100409.28;5031144;28;20858;-36
2023/11/18 04:58:05;;;;;;;15.27;4.80;;;;;;;-4.84;72.72;100411.75;5035161;28;20500;-36
2023/11/18 05:00:33;;;;;;;8.80;3.75;;;;;;;-4.84;72.86;100419.38;5031743;28;20108;-39
2023/11/18 05:02:58;;;;;;;11.02;3.78;;;;;;;-5.04;72.93;100374.63;5048265;28;20044;-36
2023/11/18 05:05:24;;;;;;;9.32;3.38;;;;;;;-4.86;72.87;100417.56;5033163;28;20033;-35
2023/11/18 05:07:51;;;;;;;9.23;3.40;;;;;;;-4.86;73.35;100413.34;5021852;28;20041;-38
2023/11/18 05:10:18;;;;;;;14.45;3.90;;;;;;;-4.85;72.76;100420.16;5032255;28;20056;-37
2023/11/18 05:12:44;;;;;;;13.55;3.92;;;;;;;-4.83;72.75;100410.97;5032946;28;20045;-36
2023/11/18 05:15:10;;;;;;;16.95;4.18;;;;;;;-4.81;73.01;100416.06;5039910;28;20045;-35
2023/11/18 05:17:37;;;;;;;18.13;4.68;;;;;;;-4.81;73.17;100413.53;5033165;28;20045;-36
2023/11/18 05:20:04;;;;;;;24.58;6.85;;;;;;;-4.79;73.13;100419.53;5045173;28;20562;-37
2023/11/18 05:22:30;;;;;;;26.17;6.80;;;;;;;-4.78;72.72;100417.06;5033301;28;20044;-36
2023/11/18 05:24:57;;;;;;;8.93;3.72;;;;;;;-4.74;72.99;100425.66;5039169;28;20071;-37
2023/11/18 05:27:23;;;;;;;16.52;4.75;;;;;;;-4.93;73.04;100403.81;5032872;28;20089;-36
2023/11/18 05:29:54;;;;;;;10.18;3.40;;;;;;;-4.77;73.27;100434.03;5048773;28;20120;-36
2023/11/18 05:32:22;;;;;;;13.23;3.33;;;;;;;-4.69;72.98;100429.22;5035764;28;20064;-36
2023/11/18 05:34:53;;;;;;;13.10;4.07;;;;;;;-4.69;73.19;100441.91;5031438;28;20127;-35
2023/11/18 05:37:23;;;;;;;14.18;3.92;;;;;;;-4.67;73.07;100436.91;5033116;28;20053;-37
2023/11/18 05:39:53;;;;;;;;;;;;;;;-4.61;73.50;100432.06;5023358;28;20052;-37
2023/11/18 05:42:19;;;;;;;7.93;3.17;;;;;;;-4.74;72.87;100416.38;5033239;28;20487;-38
2023/11/18 05:44:45;;;;;;;15.93;3.80;;;;;;;-4.58;72.56;100437.25;5030864;28;20047;-37
2023/11/18 05:47:13;;;;;;;16.40;4.05;;;;;;;-4.55;72.57;100437.38;5049830;28;20398;-36
2023/11/18 05:49:39;;;;;;;13.55;3.92;;;;;;;-4.56;72.36;100421.28;5030259;28;20049;-38
2023/11/18 05:52:05;;;;;;;11.75;3.38;;;;;;;-4.71;72.91;100400.41;5035237;28;20049;-37
2023/11/18 05:54:31;;;;;;;10.23;4.10;;;;;;;-4.46;72.48;100438.59;5033162;28;20065;-37
2023/11/18 05:56:59;;;;;;;12.68;3.78;;;;;;;-4.43;72.54;100445.44;5038864;28;20064;-35
2023/11/18 05:59:26;;;;;;;16.50;3.78;;;;;;;-4.38;72.91;100444.78;5030582;28;20049;-37
2023/11/18 06:01:53;;;;;;;7.68;3.55;;;;;;;-4.37;72.67;100440.59;5028821;28;20134;-37
2023/11/18 06:04:19;;;;;;;12.93;3.75;;;;;;;-4.30;72.78;100437.47;5036887;28;20041;-36
2023/11/18 06:06:47;;;;;;;13.40;3.50;;;;;;;-4.22;72.36;100445.34;5034646;28;20420;-36
2023/11/18 06:09:20;;;;;;;13.50;3.83;;;;;;;-4.13;72.54;100453.31;5032164;28;20044;-38
2023/11/18 06:11:49;;;;;;;9.45;2.97;;;;;;;-4.07;71.84;100451.84;5047329;28;20048;-38
2023/11/18 06:14:16;;;;;;;11.90;3.97;;;;;;;-4.01;72.14;100461.38;5047362;28;20137;-38
2023/11/18 06:16:42;;;;;;;14.85;4.20;;;;;;;-3.95;71.70;100459.94;5031769;28;20068;-38
2023/11/18 06:19:09;;;;;;;7.15;3.33;;;;;;;-3.88;71.77;100453.41;5030416;28;20060;-36
2023/11/18 06:21:36;;;;;;;13.05;4.07;;;;;;;-3.74;71.49;100457.28;5030458;28;20044;-38
2023/11/18 06:24:05;;;;;;;7.75;3.03;;;;;;;-3.46;71.31;100418.44;5031799;28;20850;-37
2023/11/18 06:26:31;;;;;;;;;;;;;;;-2.37;70.62;100456.66;5032530;28;20069;-38
2023/11/18 06:28:58;;;;;;;8.43;3.33;;;;;;;-1.38;68.50;100445.84;5047719;28;19979;-37
2023/11/18 06:31:24;;;;;;;8.15;3.67;;;;;;;-0.53;66.40;100449.59;5030359;28;20110;-36
2023/11/18 06:33:50;;;;;;;7.55;4.18;;;;;;;0.11;64.43;100430.47;5047999;28;20604;-37
2023/11/18 06:36:23;;;;;;;8.52;3.22;;;;;;;0.79;62.91;100453.06;5029870;28;20052;-37
2023/11/18 06:38:50;;;;;;;8.50;3.90;;;;;;;1.42;61.74;100451.50;5039179;28;20041;-38
2023/11/18 06:41:18;;;;;;;11.35;3.90;;;;;;;2.20;59.79;100463.69;5027141;28;20042;-37
2023/11/18 06:46:21;;;;;;;8.30;4.15;;;;;;;3.30;56.69;100446.75;5048979;28;20052;-37
2023/11/18 06:49:03;;;;;;;12.48;5.28;;;;;;;3.62;55.33;100459.81;5030309;28;20041;-38
2023/11/18 06:51:31;;;;;;;12.90;4.90;;;;;;;3.99;54.73;100455.72;5035896;28;20512;-35
2023/11/18 06:53:58;;;;;;;9.63;4.13;;;;;;;4.53;53.41;100460.22;5031620;28;20191;-39
2023/11/18 06:56:24;;;;;;;10.13;3.95;;;;;;;5.10;52.40;100467.16;5037068;28;20531;-38
2023/11/18 06:58:51;;;;;;;23.13;6.40;;;;;;;5.67;50.90;100464.50;5037215;28;20041;-37
2023/11/18 07:01:17;;;;;;;16.45;4.20;;;;;;;5.90;49.43;100461.06;5045694;28;20045;-37
2023/11/18 07:03:43;;;;;;;16.70;4.45;;;;;;;5.92;48.92;100463.63;5031337;28;20607;-38
2023/11/18 07:06:10;;;;;;;10.70;4.10;;;;;;;5.77;48.14;100463.63;5031456;28;20532;-37
2023/11/18 07:08:36;;;;;;;22.92;7.75;;;;;;;5.17;49.02;100415.59;5032376;28;20126;-37
2023/11/18 07:11:03;;;;;;;19.27;5.93;;;;;;;5.55;48.66;100455.06;5032197;28;20087;-39
2023/11/18 07:13:29;;;;;;;13.75;4.28;;;;;;;5.39;48.27;100425.03;5037275;28;20145;-38
2023/11/18 07:15:57;;;;;;;16.33;4.55;;;;;;;5.73;47.81;100459.34;5049592;28;20041;-37
2023/11/18 07:18:24;;;;;;;12.13;4.93;;;;;;;6.06;46.63;100428.31;5025254;28;20056;-38
2023/11/18 07:20:53;;;;;;;17.33;5.65;;;;;;;6.51;46.00;100457.34;5057108;28;20040;-37
2023/11/18 07:23:19;;;;;;;11.88;4.72;;;;;;;6.80;44.95;100438.19;5052788;28;20037;-36
2023/11/18 07:25:45;;;;;;;19.13;5.35;;;;;;;6.90;44.04;100454.53;5056139;28;20033;-36
2023/11/18 07:28:14;;;;;;;13.68;4.97;;;;;;;7.15;43.69;100453.47;5058189;28;20101;-37
2023/11/18 07:30:42;;;;;;;13.98;4.95;;;;;;;7.31;43.19;100451.63;5058343;28;20524;-37
2023/11/18 07:33:08;;;;;;;19.25;6.40;;;;;;;7.59;42.37;100426.31;5054134;28;20048;-37
2023/11/18 07:35:36;;;;;;;11.73;4.57;;;;;;;7.55;42.00;100455.69;5056404;28;20040;-37
2023/11/18 07:38:03;;;;;;;13.43;5.38;;;;;;;7.68;41.50;100459.03;5042875;28;20045;-37
2023/11/18 07:40:29;;;;;;;20.60;6.45;;;;;;;7.33;41.24;100455.03;5054633;28;20107;-36
2023/11/18 07:43:01;;;;;;;12.55;4.90;;;;;;;7.25;41.58;100456.84;5043495;28;20044;-37
2023/11/18 07:45:28;;;;;;;22.02;5.72;;;;;;;7.17;41.43;100418.09;5037986;28;20040;-38
2023/11/18 07:47:55;;;;;;;14.18;4.50;;;;;;;7.22;41.09;100456.88;5033505;28;20034;-37
2023/11/18 07:50:24;;;;;;;15.27;5.88;;;;;;;7.46;40.79;100459.22;5036426;28;20106;-37
2023/11/18 07:52:50;;;;;;;;;;;;;;;7.89;39.83;100462.25;5037714;28;20087;-37
2023/11/18 07:55:16;;;;;;;16.25;5.35;;;;;;;8.34;39.72;100463.44;5024479;28;19928;-36
2023/11/18 07:57:42;;;;;;;17.50;6.13;;;;;;;8.98;38.40;100465.16;5044933;28;20058;-36
2023/11/18 08:00:09;;;;;;;19.45;7.63;;;;;;;9.06;37.78;100423.50;5038124;28;20419;-37
2023/11/18 08:02:39;;;;;;;10.52;6.07;;;;;;;9.16;38.01;100466.59;5033122;28;20091;-36
2023/11/18 08:05:13;;;;;;;23.65;5.82;;;;;;;9.56;37.94;100466.78;5017769;28;20041;-36
2023/11/18 08:07:40;;;;;;;16.70;6.45;;;;;;;9.25;37.42;100432.72;5031652;28;20538;-36
2023/11/18 08:10:06;;;;;;;20.58;6.97;;;;;;;9.31;37.05;100459.44;5034051;28;20041;-43
2023/11/18 08:12:32;;;;;;;11.45;4.28;;;;;;;9.89;36.64;100465.31;5037558;28;20082;-37
2023/11/18 08:15:00;;;;;;;9.93;4.25;;;;;;;10.45;36.01;100469.41;5035053;28;20056;-36
2023/11/18 08:17:26;;;;;;;15.98;5.35;;;;;;;10.62;35.72;100436.09;5033931;28;20040;-36
2023/11/18 08:19:52;;;;;;;18.42;4.53;;;;;;;11.08;35.13;100458.44;5040571;28;20044;-36
2023/11/18 08:22:19;;;;;;;26.42;5.80;;;;;;;11.60;33.72;100465.78;5049545;28;20033;-36
2023/11/18 08:24:46;;;;;;;13.65;4.20;;;;;;;11.26;33.57;100453.63;5054171;28;20052;-36
2023/11/18 08:27:12;;;;;;;21.98;4.43;;;;;;;10.05;35.09;100461.50;5049620;28;20120;-38
2023/11/18 08:29:38;;;;;;;10.05;4.10;;;;;;;10.76;34.65;100457.44;5054644;28;20052;-43
2023/11/18 08:32:06;;;;;;;15.18;3.70;;;;;;;11.64;33.17;100451.78;5049129;28;20090;-37
2023/11/18 08:34:35;;;;;;;10.90;3.40;;;;;;;11.33;32.87;100449.13;5049006;28;20884;-37
2023/11/18 08:37:03;;;;;;;12.95;3.22;;;;;;;10.80;33.10;100446.06;5052572;28;20075;-37
2023/11/18 08:39:29;;;;;;;9.00;3.33;;;;;;;9.85;33.80;100422.06;5035931;28;20540;-37
2023/11/18 08:41:56;;;;;;;11.98;3.88;;;;;;;9.89;34.14;100439.34;5052166;28;20041;-39
2023/11/18 08:44:22;;;;;;;9.07;2.75;;;;;;;9.51;34.51;100409.75;5052961;28;20072;-37
2023/11/18 08:46:49;;;;;;;9.00;3.30;;;;;;;10.05;33.78;100444.19;5047393;28;20447;-38
2023/11/18 08:49:21;;;;;;;5.13;2.67;;;;;;;10.80;33.01;100433.06;5034399;28;20045;-38
2023/11/18 08:51:55;;;;;;;5.80;2.42;;;;;;;11.43;31.85;100437.56;5030071;28;20046;-51
2023/11/18 08:54:22;;;;;;;7.20;2.83;;;;;;;11.69;31.60;100435.13;5034302;28;20056;-37
2023/11/18 08:56:50;;;;;;;8.13;3.33;;;;;;;11.56;31.78;100419.91;5050440;28;20033;-37
2023/11/18 08:59:24;;;;;;;8.80;3.40;;;;;;;11.63;31.35;100430.09;5048523;28;20520;-37
2023/11/18 09:01:55;;;;;;;10.52;3.03;;;;;;;11.85;31.00;100433.88;5042413;28;20080;-38
2023/11/18 09:04:23;;;;;;;12.82;2.50;;;;;;;12.24;30.46;100439.72;5037092;28;20420;-37
2023/11/18 09:06:53;;;;;;;6.55;2.38;;;;;;;12.40;30.04;100440.13;5033557;28;20045;-37
2023/11/18 09:09:26;;;;;;;9.05;3.22;;;;;;;12.15;30.22;100446.91;5032766;28;20424;-38
2023/11/18 09:11:56;;;;;;;12.20;2.97;;;;;;;12.40;30.11;100444.47;5048368;28;20037;-38
2023/11/18 09:14:25;;;;;;;11.15;2.80;;;;;;;12.93;29.66;100433.22;5029192;28;20497;-37
2023/11/18 09:16:54;;;;;;;9.15;2.97;;;;;;;13.54;28.66;100429.47;5036417;28;20045;-38
2023/11/18 09:19:21;;;;;;;;;;;;;;;13.65;28.44;100429.09;5027015;28;20638;-38
2023/11/18 09:21:48;;;;;;;5.78;2.50;;;;;;;13.34;28.64;100433.69;5048214;28;19916;-38
2023/11/18 09:24:19;;;;;;;8.85;2.53;;;;;;;13.17;28.55;100438.59;5029663;28;20054;-39
2023/11/18 09:26:49;;;;;;;6.65;2.33;;;;;;;12.57;28.83;100413.50;5033502;28;20029;-38
2023/11/18 09:29:23;;;;;;;8.48;2.30;;;;;;;12.48;28.88;100430.28;5036361;28;20040;-38
2023/11/18 09:31:52;;;;;;;6.97;2.25;;;;;;;12.99;28.87;100433.03;5036190;28;20045;-37
2023/11/18 09:34:26;;;;;;;9.65;2.20;;;;;;;13.35;27.99;100419.69;5029019;28;20539;-37
2023/11/18 09:36:56;;;;;;;11.48;3.20;;;;;;;12.30;28.16;100434.28;5032467;28;20485;-39
2023/11/18 09:39:37;;;;;;;8.23;3.30;;;;;;;10.57;30.01;100435.34;5032413;28;20044;-36
2023/11/18 09:42:08;;;;;;;10.88;2.75;;;;;;;9.05;31.43;100430.47;5033026;28;20052;-37
2023/11/18 09:44:37;;;;;;;8.57;3.13;;;;;;;7.85;32.85;100415.69;5047515;28;20068;-37
2023/11/18 09:47:09;;;;;;;;;;;;;;;7.11;33.33;100432.81;5049263;28;20043;-37
2023/11/18 09:49:40;;;;;;;6.45;2.70;;;;;;;6.45;34.75;100428.97;5045784;28;19917;-38
2023/11/18 09:52:07;;;;;;;19.88;3.30;;;;;;;5.97;35.41;100431.78;5029053;28;20033;-37
2023/11/18 09:55:02;;;;;;;11.88;2.72;;;;;;;5.42;36.18;100432.75;5031337;28;20128;-36
2023/11/18 09:57:41;;;;;;;6.22;2.80;;;;;;;5.06;36.70;100436.22;5030189;28;20049;-36
2023/11/18 10:00:19;;;;;;;7.70;2.75;;;;;;;4.61;37.58;100398.41;5057033;28;20063;-37
2023/11/18 10:02:48;;;;;;;13.40;3.00;;;;;;;4.26;37.75;100388.91;5030479;28;20044;-36
2023/11/18 10:05:20;;;;;;;7.95;2.75;;;;;;;4.12;37.89;100411.19;5029963;28;20081;-36
2023/11/18 10:07:47;;;;;;;10.55;2.50;;;;;;;3.91;38.55;100415.38;5056420;28;20037;-36
2023/11/18 10:10:17;;;;;;;14.35;3.00;;;;;;;3.78;38.80;100420.47;5048081;28;20041;-37
2023/11/18 10:12:48;;;;;;;13.15;3.70;;;;;;;3.60;39.43;100430.66;5040793;28;20045;-37
2023/11/18 10:15:15;;;;;;;11.55;3.65;;;;;;;3.43;39.76;100432.28;5037081;28;20106;-37
2023/11/18 10:18:34;;;;;;;14.55;3.17;;;;;;;3.04;40.52;100375.47;5032257;28;20045;-37
2023/11/18 10:20:50;;;;;;;9.55;3.03;;;;;;;3.02;40.70;100398.59;5026790;28;20080;-37
2023/11/18 10:23:21;;;;;;;8.73;2.85;;;;;;;3.07;41.35;100417.47;5032847;28;20055;-35
2023/11/18 10:25:49;;;;;;;7.60;3.05;;;;;;;3.03;41.74;100420.88;5034723;28;20047;-37
2023/11/18 10:28:27;;;;;;;7.80;3.25;;;;;;;2.92;42.15;100417.34;5031796;28;20037;-41
2023/11/18 10:31:15;;;;;;;5.93;2.97;;;;;;;4.09;41.04;100415.44;5052056;28;20056;-37
2023/11/18 10:33:44;;;;;;;7.32;3.67;;;;;;;6.28;38.14;100409.25;5033839;28;20773;-36
2023/11/18 10:36:23;;;;;;;10.32;3.03;;;;;;;8.12;35.48;100412.75;5048319;28;20107;-36
2023/11/18 10:38:51;;;;;;;6.95;2.88;;;;;;;9.34;34.05;100409.19;5035785;28;20128;-36
2023/11/18 10:41:21;;;;;;;10.52;3.22;;;;;;;10.43;32.72;100414.81;5032445;28;20551;-37
2023/11/18 10:43:50;;;;;;;10.10;3.33;;;;;;;11.15;31.66;100418.34;5050180;28;20132;-37
2023/11/18 10:46:16;;;;;;;6.80;2.75;;;;;;;11.50;31.02;100388.78;5035347;28;20041;-37
2023/11/18 10:48:50;;;;;;;8.75;3.17;;;;;;;11.96;30.11;100410.09;5037249;28;20099;-37
2023/11/18 10:51:19;;;;;;;16.45;3.60;;;;;;;12.41;29.75;100412.25;5036452;28;20045;-37
2023/11/18 10:54:00;;;;;;;12.93;3.72;;;;;;;12.71;29.21;100409.59;5023501;28;20565;-37
2023/11/18 10:56:28;;;;;;;14.63;3.40;;;;;;;13.10;28.82;100419.63;5031778;28;20042;-37
2023/11/18 10:59:00;;;;;;;9.45;3.30;;;;;;;13.30;28.18;100419.84;5036837;28;20622;-38
2023/11/18 11:01:33;;;;;;;7.88;3.40;;;;;;;13.26;27.79;100414.78;5052940;28;20650;-38
2023/11/18 11:04:00;;;;;;;7.47;3.63;;;;;;;13.36;27.76;100413.56;5035777;28;20250;-36
2023/11/18 11:06:30;;;;;;;21.45;4.93;;;;;;;13.65;27.47;100417.81;5035289;28;20037;-37
2023/11/18 11:09:00;;;;;;;12.65;4.32;;;;;;;13.78;27.20;100409.47;5050508;28;20144;-39
2023/11/18 11:11:34;;;;;;;11.80;4.93;;;;;;;13.97;26.78;100413.09;5036020;28;20778;-38
2023/11/18 11:14:00;;;;;;;13.48;3.97;;;;;;;13.91;26.79;100415.97;5040291;28;20041;-38
2023/11/18 11:16:38;;;;;;;12.32;4.03;;;;;;;13.66;26.66;100412.50;5037074;28;20050;-37
2023/11/18 11:19:08;;;;;;;17.48;4.55;;;;;;;13.89;26.57;100407.31;5047961;28;20045;-38
2023/11/18 11:21:47;;;;;;;22.40;4.63;;;;;;;13.74;26.41;100402.63;5059029;28;20492;-37
2023/11/18 11:24:33;;;;;;;11.93;4.03;;;;;;;13.85;26.58;100397.03;5057890;28;20037;-38
2023/11/18 11:27:35;;;;;;;24.05;4.90;;;;;;;14.34;26.25;100409.16;5030386;28;20036;-37
2023/11/18 11:30:15;;;;;;;17.38;4.60;;;;;;;14.56;25.94;100393.47;5048679;28;20071;-37
2023/11/18 11:33:05;;;;;;;13.57;5.70;;;;;;;14.61;25.75;100413.31;5032129;28;20175;-36
2023/11/18 11:35:33;;;;;;;15.43;5.50;;;;;;;14.32;25.99;100410.94;5034954;28;20045;-44